Time;durP1;ratioP1;P1;durP2;ratioP2;P2;SDS_P1;SDS_P2;PMS_P1;PMS_P2;Temp;Humidity;BMP_temperature;BMP_pressure;BME280_temperature;BME280_humidity;BME280_pressure;Samples;Min_cycle;Max_cycle;Signal;HPM_P1;HPM_P2
2023/01/02 00:00:16;;;;;;;1.40;1.30;;;;;17.30;100024.00;;;;2060887;28;20221;-53
2023/01/02 00:01:17;;;;;;;1.33;1.20;;;;;17.10;100017.00;;;;2068798;28;20323;-52
2023/01/02 00:02:17;;;;;;;1.73;1.20;;;;;17.30;100021.00;;;;2068582;28;20224;-52
2023/01/02 00:03:17;;;;;;;1.97;1.10;;;;;17.30;100014.00;;;;2065508;28;20231;-52
2023/01/02 00:04:18;;;;;;;1.63;1.40;;;;;17.20;100030.00;;;;2066976;28;20223;-52
2023/01/02 00:05:18;;;;;;;1.63;1.43;;;;;17.30;100030.00;;;;2061940;28;20219;-52
2023/01/02 00:06:18;;;;;;;1.23;1.00;;;;;17.30;100030.00;;;;2059438;28;20232;-52
2023/01/02 00:07:18;;;;;;;2.20;1.53;;;;;17.30;100029.00;;;;2061280;28;20314;-52
2023/01/02 00:08:19;;;;;;;2.33;1.70;;;;;17.20;100030.00;;;;2061306;28;20216;-52
2023/01/02 00:09:19;;;;;;;1.53;1.30;;;;;17.20;100026.00;;;;2062943;28;20223;-52
2023/01/02 00:10:19;;;;;;;1.83;1.30;;;;;17.20;100030.00;;;;2062988;28;20218;-52
2023/01/02 00:11:20;;;;;;;1.40;1.30;;;;;17.30;100029.00;;;;2062771;28;20315;-52
2023/01/02 00:12:20;;;;;;;1.47;1.30;;;;;17.20;100029.00;;;;2062262;28;20223;-52
2023/01/02 00:13:20;;;;;;;1.73;1.40;;;;;17.30;100018.00;;;;2062988;28;20219;-52
2023/01/02 00:14:21;;;;;;;1.87;1.33;;;;;17.30;100023.00;;;;2070091;28;20303;-52
2023/01/02 00:15:21;;;;;;;1.53;1.17;;;;;17.20;100014.00;;;;2070791;28;20210;-52
2023/01/02 00:16:22;;;;;;;1.57;1.30;;;;;17.30;100014.00;;;;2070946;28;20220;-52
2023/01/02 00:17:22;;;;;;;1.50;1.40;;;;;17.30;100014.00;;;;2070848;28;20214;-52
2023/01/02 00:18:22;;;;;;;1.87;1.30;;;;;17.20;100019.00;;;;2070378;28;20219;-52
2023/01/02 00:19:23;;;;;;;2.03;1.20;;;;;17.30;100021.00;;;;2070475;28;20241;-52
2023/01/02 00:20:23;;;;;;;1.30;1.20;;;;;17.30;100027.00;;;;2070662;28;20223;-52
2023/01/02 00:21:23;;;;;;;2.27;1.40;;;;;17.30;100034.00;;;;2070742;28;20218;-52
2023/01/02 00:22:23;;;;;;;1.50;1.30;;;;;17.30;100019.00;;;;2066688;28;20298;-52
2023/01/02 00:23:24;;;;;;;1.57;1.20;;;;;17.20;100032.00;;;;2062594;28;20286;-53
2023/01/02 00:24:24;;;;;;;1.70;1.20;;;;;17.30;100033.00;;;;2062866;28;20220;-52
2023/01/02 00:25:25;;;;;;;2.17;1.27;;;;;17.30;100025.00;;;;2062646;28;20234;-52
2023/01/02 00:26:25;;;;;;;1.80;1.20;;;;;17.20;100025.00;;;;2062710;28;20228;-52
2023/01/02 00:27:25;;;;;;;2.13;1.37;;;;;17.30;100032.00;;;;2062192;28;20219;-52
2023/01/02 00:28:27;;;;;;;1.73;1.20;;;;;17.30;100026.00;;;;2061780;28;20688;-52
2023/01/02 00:29:27;;;;;;;1.50;1.10;;;;;17.30;100030.00;;;;2062682;28;20890;-52
2023/01/02 00:30:27;;;;;;;2.13;1.27;;;;;17.30;100029.00;;;;2062778;28;20219;-52
2023/01/02 00:31:28;;;;;;;2.30;1.57;;;;;17.20;100027.00;;;;2062822;28;20219;-52
2023/01/02 00:32:28;;;;;;;1.77;1.40;;;;;17.30;100025.00;;;;2062590;28;20684;-52
2023/01/02 00:33:28;;;;;;;1.93;1.20;;;;;17.30;100031.00;;;;2062872;28;20208;-52
2023/01/02 00:34:29;;;;;;;1.67;1.20;;;;;17.30;100031.00;;;;2062851;28;20300;-52
2023/01/02 00:35:30;;;;;;;1.37;1.20;;;;;17.30;100027.00;;;;2062922;28;20273;-52
2023/01/02 00:36:30;;;;;;;2.10;1.30;;;;;17.30;100031.00;;;;2063081;28;20787;-52
2023/01/02 00:37:30;;;;;;;1.30;1.20;;;;;17.30;100030.00;;;;2062944;28;20224;-52
2023/01/02 00:38:31;;;;;;;1.20;1.10;;;;;17.30;100033.00;;;;2062677;28;20239;-52
2023/01/02 00:39:31;;;;;;;1.80;1.30;;;;;17.30;100027.00;;;;2062935;28;20294;-52
2023/01/02 00:40:32;;;;;;;1.10;1.00;;;;;17.30;100044.00;;;;2062717;28;20227;-52
2023/01/02 00:41:32;;;;;;;1.40;1.27;;;;;17.30;100023.00;;;;2065204;28;20252;-52
2023/01/02 00:42:32;;;;;;;2.80;1.47;;;;;17.30;100022.00;;;;2062557;28;20224;-52
2023/01/02 00:43:33;;;;;;;2.63;1.60;;;;;17.30;100029.00;;;;2062929;28;20229;-52
2023/01/02 00:44:33;;;;;;;1.47;1.00;;;;;17.30;100026.00;;;;2062920;28;20251;-52
2023/01/02 00:45:33;;;;;;;1.70;1.20;;;;;17.30;100021.00;;;;2063066;28;20227;-52
2023/01/02 00:46:34;;;;;;;1.40;1.10;;;;;17.30;100016.00;;;;2062840;28;20226;-52
2023/01/02 00:47:34;;;;;;;1.67;1.30;;;;;17.30;100027.00;;;;2066119;28;20235;-52
2023/01/02 00:48:34;;;;;;;1.67;1.30;;;;;17.30;100024.00;;;;2070755;28;20227;-52
2023/01/02 00:49:35;;;;;;;1.93;1.40;;;;;17.30;100025.00;;;;2070949;28;20633;-52
2023/01/02 00:50:35;;;;;;;1.10;1.00;;;;;17.30;100030.00;;;;2070932;28;20683;-52
2023/01/02 00:51:35;;;;;;;2.27;1.30;;;;;17.30;100016.00;;;;2070680;28;20818;-52
2023/01/02 00:52:36;;;;;;;2.43;1.40;;;;;17.30;100033.00;;;;2070477;28;20746;-52
2023/01/02 00:53:36;;;;;;;1.63;1.00;;;;;17.30;100016.00;;;;2070857;28;20695;-52
2023/01/02 00:54:36;;;;;;;1.80;1.30;;;;;17.30;100029.00;;;;2070752;28;21152;-52
2023/01/02 00:55:37;;;;;;;1.10;1.00;;;;;17.30;100028.00;;;;2071024;28;20220;-52
2023/01/02 00:56:37;;;;;;;1.40;1.30;;;;;17.30;100020.00;;;;2070751;28;20243;-52
2023/01/02 00:57:37;;;;;;;1.80;1.40;;;;;17.30;100034.00;;;;2070914;28;20357;-52
2023/01/02 00:58:38;;;;;;;1.60;1.30;;;;;17.30;100025.00;;;;2070722;28;20301;-52
2023/01/02 00:59:38;;;;;;;1.90;1.20;;;;;17.30;100033.00;;;;2070888;28;20218;-52
2023/01/02 01:00:38;;;;;;;1.63;1.10;;;;;17.30;100020.00;;;;2067436;28;20230;-52
2023/01/02 01:01:39;;;;;;;1.20;1.00;;;;;17.30;100036.00;;;;2062189;28;20315;-52
2023/01/02 01:02:39;;;;;;;1.50;1.00;;;;;17.30;100023.00;;;;2062274;28;20223;-52
2023/01/02 01:03:42;;;;;;;1.20;1.03;;;;;17.30;100033.00;;;;2062745;28;20283;-53
2023/01/02 01:04:42;;;;;;;1.20;1.10;;;;;17.30;100020.00;;;;2062854;28;20224;-52
2023/01/02 01:05:42;;;;;;;1.27;1.07;;;;;17.30;100022.00;;;;2062771;28;20618;-52
2023/01/02 01:06:43;;;;;;;1.20;1.10;;;;;17.30;100026.00;;;;2061710;28;20567;-52
2023/01/02 01:07:43;;;;;;;1.40;1.30;;;;;17.30;100023.00;;;;2062746;28;20207;-52
2023/01/02 01:08:43;;;;;;;1.97;1.40;;;;;17.30;100025.00;;;;2062488;28;20282;-52
2023/01/02 01:09:44;;;;;;;2.03;1.23;;;;;17.30;100027.00;;;;2062566;28;20222;-52
2023/01/02 01:10:44;;;;;;;1.40;1.20;;;;;17.30;100023.00;;;;2062690;28;20226;-52
2023/01/02 01:11:44;;;;;;;1.50;1.10;;;;;17.30;100029.00;;;;2062674;28;20216;-52
2023/01/02 01:12:45;;;;;;;1.43;1.10;;;;;17.30;100011.00;;;;2062163;28;20251;-52
2023/01/02 01:13:46;;;;;;;1.93;1.40;;;;;17.30;100023.00;;;;2062591;28;20215;-52
2023/01/02 01:14:46;;;;;;;1.45;1.35;;;;;17.30;100028.00;;;;2062669;28;20582;-52
2023/01/02 01:15:47;;;;;;;1.90;1.50;;;;;17.30;100030.00;;;;2062526;28;20224;-52
2023/01/02 01:16:47;;;;;;;1.23;1.13;;;;;17.30;100025.00;;;;2062673;28;20239;-55
2023/01/02 01:17:47;;;;;;;2.57;1.70;;;;;17.30;100030.00;;;;2062494;28;21069;-53
2023/01/02 01:18:48;;;;;;;1.20;1.10;;;;;17.30;100020.00;;;;2061812;28;20228;-53
2023/01/02 01:19:48;;;;;;;2.03;1.37;;;;;17.30;100020.00;;;;2062332;28;20223;-53
2023/01/02 01:20:48;;;;;;;1.60;1.30;;;;;17.30;100008.00;;;;2062086;28;20220;-53
2023/01/02 01:21:49;;;;;;;3.43;1.27;;;;;17.30;100016.00;;;;2062256;28;20220;-53
2023/01/02 01:22:49;;;;;;;1.57;1.17;;;;;17.30;100013.00;;;;2062311;28;20220;-53
2023/01/02 01:23:51;;;;;;;1.67;1.33;;;;;17.30;100011.00;;;;2062621;28;20227;-53
2023/01/02 01:24:51;;;;;;;1.40;1.20;;;;;17.30;100023.00;;;;2062472;28;20247;-52
2023/01/02 01:25:51;;;;;;;1.30;1.17;;;;;17.30;100023.00;;;;2062578;28;20295;-53
2023/01/02 01:26:52;;;;;;;2.30;1.43;;;;;17.30;100017.00;;;;2062491;28;20315;-53
2023/01/02 01:27:53;;;;;;;1.50;1.13;;;;;17.30;100016.00;;;;2062615;28;20216;-52
2023/01/02 01:28:53;;;;;;;2.00;1.30;;;;;17.30;100016.00;;;;2062539;28;20898;-53
2023/01/02 01:29:54;;;;;;;2.10;1.13;;;;;17.30;100013.00;;;;2066121;28;20210;-52
2023/01/02 01:30:54;;;;;;;1.60;1.40;;;;;17.30;100017.00;;;;2070588;28;20239;-52
2023/01/02 01:31:54;;;;;;;1.93;1.20;;;;;17.30;100012.00;;;;2070107;28;20589;-52
2023/01/02 01:32:55;;;;;;;2.27;1.30;;;;;17.30;99969.00;;;;2070647;28;20973;-52
2023/01/02 01:33:55;;;;;;;1.43;1.10;;;;;17.30;100015.00;;;;2070447;28;20690;-52
2023/01/02 01:34:55;;;;;;;2.40;1.20;;;;;17.30;100011.00;;;;2070029;28;20695;-52
2023/01/02 01:36:00;;;;;;;2.13;1.10;;;;;17.20;100012.00;;;;2069909;28;20644;-52
2023/01/02 01:37:01;;;;;;;1.60;1.30;;;;;17.30;100014.00;;;;2069899;28;20221;-52
2023/01/02 01:38:01;;;;;;;2.17;1.37;;;;;17.30;100016.00;;;;2070465;28;20211;-52
2023/01/02 01:39:01;;;;;;;2.17;1.40;;;;;17.30;100016.00;;;;2070372;28;20218;-52
2023/01/02 01:40:02;;;;;;;1.90;1.53;;;;;17.30;100005.00;;;;2070602;28;20223;-52
2023/01/02 01:41:02;;;;;;;2.20;1.20;;;;;17.30;100011.00;;;;2068146;28;20218;-52
2023/01/02 01:42:02;;;;;;;1.60;1.23;;;;;17.30;100008.00;;;;2062117;28;20203;-52
2023/01/02 01:43:03;;;;;;;2.07;1.20;;;;;17.30;100007.00;;;;2062468;28;20218;-52
2023/01/02 01:44:41;;;;;;;2.30;1.23;;;;;17.30;100006.00;;;;2062277;28;20211;-52
2023/01/02 01:45:43;;;;;;;1.65;1.23;;;;;17.30;100004.00;;;;2069409;28;20284;-52
2023/01/02 01:46:44;;;;;;;1.60;1.30;;;;;17.30;100001.00;;;;2061826;28;20212;-52
2023/01/02 01:47:51;;;;;;;1.40;1.30;;;;;17.30;100000.00;;;;2061642;28;20222;-52
2023/01/02 01:49:14;;;;;;;1.52;1.20;;;;;17.30;99998.00;;;;2060264;28;20217;-52
2023/01/02 01:50:20;;;;;;;1.70;1.30;;;;;17.20;99999.00;;;;2044561;28;20217;-52
2023/01/02 01:51:20;;;;;;;1.65;1.30;;;;;17.30;100001.00;;;;2052403;28;20219;-52
2023/01/02 01:52:22;;;;;;;1.57;1.33;;;;;17.30;100003.00;;;;2046255;28;20305;-52
2023/01/02 01:53:23;;;;;;;1.50;1.33;;;;;17.30;100006.00;;;;2052600;28;20244;-52
2023/01/02 01:54:26;;;;;;;2.30;1.67;;;;;17.20;100002.00;;;;2060980;28;20200;-53
2023/01/02 01:55:44;;;;;;;1.73;1.42;;;;;17.30;99997.00;;;;2052684;28;20459;-52
2023/01/02 01:56:48;;;;;;;2.13;1.30;;;;;17.30;100002.00;;;;2061236;28;20222;-52
2023/01/02 01:57:54;;;;;;;2.40;1.15;;;;;17.30;100000.00;;;;2061343;28;20669;-52
2023/01/02 01:58:54;;;;;;;3.20;1.77;;;;;17.30;100001.00;;;;2053671;28;20220;-53
2023/01/02 01:59:55;;;;;;;1.93;1.40;;;;;17.30;99998.00;;;;2060964;28;20247;-53
2023/01/02 02:00:56;;;;;;;2.35;1.58;;;;;17.30;99997.00;;;;2061973;28;20889;-52
2023/01/02 02:01:56;;;;;;;1.30;1.20;;;;;17.20;99997.00;;;;2069096;28;20232;-53
2023/01/02 02:02:58;;;;;;;1.60;1.33;;;;;17.30;100001.00;;;;2070245;28;20222;-53
2023/01/02 02:03:58;;;;;;;1.85;1.10;;;;;17.30;100011.00;;;;2069123;28;20219;-52
2023/01/02 02:04:59;;;;;;;1.20;1.10;;;;;17.30;100006.00;;;;2069411;28;20216;-53
2023/01/02 02:06:00;;;;;;;2.70;1.30;;;;;17.30;100009.00;;;;2068512;28;20314;-52
2023/01/02 02:07:00;;;;;;;2.10;1.23;;;;;17.30;100005.00;;;;2069446;28;20219;-52
2023/01/02 02:08:09;;;;;;;1.60;1.40;;;;;17.30;100006.00;;;;2070108;28;20281;-52
2023/01/02 02:09:15;;;;;;;1.52;1.27;;;;;17.30;100012.00;;;;2061222;28;20219;-52
2023/01/02 02:10:15;;;;;;;1.45;1.30;;;;;17.30;100006.00;;;;2062181;28;20649;-52
2023/01/02 02:11:16;;;;;;;1.47;1.37;;;;;17.30;100010.00;;;;2060836;28;20228;-52
2023/01/02 02:12:16;;;;;;;2.90;1.30;;;;;17.30;100008.00;;;;2060746;28;20914;-52
2023/01/02 02:13:16;;;;;;;1.70;1.30;;;;;17.30;100006.00;;;;2069346;28;20833;-52
2023/01/02 02:14:17;;;;;;;2.30;1.77;;;;;17.20;100012.00;;;;2069450;28;20240;-52
2023/01/02 02:15:19;;;;;;;1.33;1.03;;;;;17.30;100009.00;;;;2068940;28;20247;-52
2023/01/02 02:16:24;;;;;;;1.60;1.13;;;;;17.30;100011.00;;;;2060906;28;20746;-52
2023/01/02 02:17:28;;;;;;;2.10;1.60;;;;;17.30;99966.00;;;;2061778;28;20238;-52
2023/01/02 02:18:56;;;;;;;1.85;1.40;;;;;17.30;100004.00;;;;2061455;28;20227;-53
2023/01/02 02:20:09;;;;;;;1.60;1.20;;;;;17.30;100007.00;;;;2063424;28;20254;-52
2023/01/02 02:21:43;;;;;;;1.30;1.20;;;;;17.30;100000.00;;;;2069479;28;20963;-52
2023/01/02 02:22:55;;;;;;;1.60;1.10;;;;;17.30;100009.00;;;;2073628;28;20546;-52
2023/01/02 02:24:22;;;;;;;2.03;1.55;;;;;17.30;100006.00;;;;2078177;28;20248;-51
2023/01/02 02:25:46;;;;;;;2.63;1.38;;;;;17.30;100006.00;;;;2076682;28;20211;-52
2023/01/02 02:27:06;;;;;;;2.70;1.40;;;;;17.30;100008.00;;;;2077636;28;20215;-52
2023/01/02 02:28:17;;;;;;;1.48;1.33;;;;;17.30;100009.00;;;;2070008;28;20208;-52
2023/01/02 02:29:59;;;;;;;1.65;1.10;;;;;17.30;100004.00;;;;2069481;28;20219;-52
2023/01/02 02:31:06;;;;;;;1.73;1.10;;;;;17.30;100004.00;;;;2069804;28;20223;-53
2023/01/02 02:32:09;;;;;;;1.60;1.23;;;;;17.30;100008.00;;;;2060420;28;20258;-52
2023/01/02 02:33:15;;;;;;;1.48;1.38;;;;;17.10;99993.00;;;;2054497;28;20222;-52
2023/01/02 02:34:22;;;;;;;1.50;1.20;;;;;17.30;100011.00;;;;2069619;28;20223;-52
2023/01/02 02:36:03;;;;;;;1.63;1.08;;;;;17.30;100009.00;;;;2069431;28;20221;-52
2023/01/02 02:37:23;;;;;;;2.25;1.30;;;;;17.30;100003.00;;;;2068709;28;20707;-52
2023/01/02 02:38:46;;;;;;;1.30;1.10;;;;;17.20;100011.00;;;;2060984;28;20294;-52
2023/01/02 02:40:07;;;;;;;2.33;1.20;;;;;17.30;100009.00;;;;2067724;28;20833;-51
2023/01/02 02:41:15;;;;;;;1.60;1.50;;;;;17.30;99999.00;;;;2064910;28;20221;-53
2023/01/02 02:42:38;;;;;;;1.95;1.50;;;;;17.30;100015.00;;;;2053696;28;20213;-52
2023/01/02 02:43:46;;;;;;;1.60;1.20;;;;;17.10;100014.00;;;;2066279;28;20783;-52
2023/01/02 02:44:49;;;;;;;1.85;1.20;;;;;17.30;100009.00;;;;2060603;28;20254;-52
2023/01/02 02:46:01;;;;;;;3.47;1.30;;;;;17.30;100006.00;;;;2062953;28;20327;-52
2023/01/02 02:47:06;;;;;;;1.55;1.20;;;;;17.30;100014.00;;;;2066313;28;20643;-53
2023/01/02 02:48:18;;;;;;;2.30;1.40;;;;;17.20;100005.00;;;;2069082;28;20241;-52
2023/01/02 02:49:56;;;;;;;1.92;1.13;;;;;17.30;100020.00;;;;2069231;28;20827;-52
2023/01/02 02:51:04;;;;;;;1.85;1.50;;;;;17.30;100004.00;;;;2069079;28;20680;-52
2023/01/02 02:52:59;;;;;;;1.77;1.42;;;;;17.30;100019.00;;;;2055319;28;20222;-53
2023/01/02 02:54:04;;;;;;;1.88;1.27;;;;;17.30;100017.00;;;;2057104;28;20284;-52
2023/01/02 02:55:21;;;;;;;1.80;1.15;;;;;17.20;100007.00;;;;2051915;28;20279;-52
2023/01/02 02:56:22;;;;;;;2.55;1.15;;;;;17.30;100007.00;;;;2048446;28;20205;-52
2023/01/02 02:57:23;;;;;;;1.50;1.35;;;;;17.20;100004.00;;;;2053307;28;20693;-52
2023/01/02 02:58:23;;;;;;;1.37;1.23;;;;;17.30;100013.00;;;;2060985;28;20265;-52
2023/01/02 02:59:23;;;;;;;1.53;1.33;;;;;17.30;99996.00;;;;2069337;28;20257;-52
2023/01/02 03:00:24;;;;;;;1.50;1.07;;;;;17.30;99985.00;;;;2053127;28;20221;-51
2023/01/02 03:01:26;;;;;;;2.30;1.30;;;;;17.20;99980.00;;;;2061236;28;20219;-52
2023/01/02 03:02:26;;;;;;;2.20;1.30;;;;;17.20;99979.00;;;;2060764;28;20280;-52
2023/01/02 03:03:26;;;;;;;2.30;1.10;;;;;17.20;99968.00;;;;2061244;28;20626;-52
2023/01/02 03:04:27;;;;;;;1.37;1.17;;;;;17.20;99968.00;;;;2069876;28;20775;-53
2023/01/02 03:05:34;;;;;;;1.77;1.30;;;;;17.30;99973.00;;;;2070036;28;20223;-52
2023/01/02 03:06:44;;;;;;;1.95;1.00;;;;;17.30;99990.00;;;;2061061;28;20251;-53
2023/01/02 03:07:54;;;;;;;2.42;1.00;;;;;17.30;99983.00;;;;2062855;28;20573;-52
2023/01/02 03:09:09;;;;;;;2.55;1.10;;;;;17.30;99988.00;;;;2062997;28;20224;-52
2023/01/02 03:10:14;;;;;;;1.65;1.23;;;;;17.30;99992.00;;;;2063212;28;20249;-53
2023/01/02 03:11:14;;;;;;;2.63;1.30;;;;;17.30;99988.00;;;;2062260;28;20742;-52
2023/01/02 03:12:27;;;;;;;2.07;1.40;;;;;17.20;99990.00;;;;2052804;28;20212;-52
2023/01/02 03:13:45;;;;;;;1.70;1.30;;;;;17.30;99986.00;;;;2056116;28;20227;-52
2023/01/02 03:15:01;;;;;;;1.40;1.10;;;;;17.30;99979.00;;;;2069101;28;20218;-52
2023/01/02 03:16:09;;;;;;;2.42;1.30;;;;;17.20;99972.00;;;;2069408;28;20699;-52
2023/01/02 03:17:40;;;;;;;1.52;1.00;;;;;17.20;99975.00;;;;2053644;28;20225;-52
2023/01/02 03:19:07;;;;;;;2.05;1.30;;;;;17.20;99982.00;;;;2059145;28;20593;-52
2023/01/02 03:20:10;;;;;;;2.72;1.33;;;;;17.20;99990.00;;;;2054433;28;20223;-53
2023/01/02 03:21:21;;;;;;;1.90;1.20;;;;;17.30;99998.00;;;;2045754;28;20214;-52
2023/01/02 03:22:24;;;;;;;2.53;1.20;;;;;17.30;100006.00;;;;2054215;28;20237;-52
2023/01/02 03:23:24;;;;;;;1.52;1.23;;;;;17.30;100009.00;;;;2061033;28;20228;-52
2023/01/02 03:24:24;;;;;;;2.43;1.67;;;;;17.30;100004.00;;;;2061267;28;20212;-52
2023/01/02 03:25:25;;;;;;;2.50;1.07;;;;;17.20;99998.00;;;;2061119;28;20214;-52
2023/01/02 03:26:26;;;;;;;1.67;1.27;;;;;17.30;100007.00;;;;2052988;28;20328;-52
2023/01/02 03:27:28;;;;;;;1.45;1.27;;;;;17.30;100014.00;;;;2061066;28;20220;-52
2023/01/02 03:28:28;;;;;;;1.95;1.38;;;;;17.30;100021.00;;;;2059767;28;20271;-52
2023/01/02 03:30:11;;;;;;;1.73;1.23;;;;;17.20;100006.00;;;;2060773;28;20237;-52
2023/01/02 03:31:15;;;;;;;1.60;1.30;;;;;17.20;100007.00;;;;2038840;28;20231;-52
2023/01/02 03:32:29;;;;;;;2.70;1.40;;;;;17.30;100024.00;;;;2035894;29;20215;-52
2023/01/02 03:33:31;;;;;;;1.80;1.20;;;;;17.20;100031.00;;;;2045587;28;20231;-52
2023/01/02 03:34:32;;;;;;;1.50;1.20;;;;;17.20;100028.00;;;;2044903;28;20220;-52
2023/01/02 03:35:36;;;;;;;1.80;1.20;;;;;17.30;100017.00;;;;2044487;29;20219;-52
2023/01/02 03:36:36;;;;;;;1.70;1.20;;;;;17.30;100025.00;;;;2047028;28;20225;-52
2023/01/02 03:37:38;;;;;;;2.90;1.40;;;;;17.30;100020.00;;;;2061155;28;21087;-52
2023/01/02 03:38:43;;;;;;;1.80;1.38;;;;;17.30;100026.00;;;;2060357;28;20249;-54
2023/01/02 03:39:49;;;;;;;1.52;1.10;;;;;17.20;100026.00;;;;2058098;28;20840;-52
2023/01/02 03:41:13;;;;;;;1.88;1.25;;;;;17.30;100027.00;;;;2053339;28;20216;-52
2023/01/02 03:42:18;;;;;;;1.65;1.20;;;;;17.20;100008.00;;;;2063042;28;20370;-52
2023/01/02 03:43:21;;;;;;;2.58;1.33;;;;;17.30;100011.00;;;;2061348;28;20670;-52
2023/01/02 03:44:23;;;;;;;1.40;1.10;;;;;17.20;100003.00;;;;2062843;28;20861;-52
2023/01/02 03:45:27;;;;;;;2.65;1.30;;;;;17.30;100012.00;;;;2061848;28;20220;-52
2023/01/02 03:46:31;;;;;;;2.25;1.65;;;;;17.30;100017.00;;;;2066352;28;20203;-52
2023/01/02 03:47:36;;;;;;;2.30;1.20;;;;;17.20;100019.00;;;;2064333;28;20340;-52
2023/01/02 03:48:46;;;;;;;1.58;1.30;;;;;17.30;100016.00;;;;2062112;28;20723;-52
2023/01/02 03:49:48;;;;;;;2.15;1.40;;;;;17.30;100017.00;;;;2061775;28;20221;-52
2023/01/02 03:50:50;;;;;;;1.35;1.10;;;;;17.30;100002.00;;;;2065041;28;20215;-53
2023/01/02 03:51:50;;;;;;;1.08;0.95;;;;;17.20;100015.00;;;;2069733;28;20285;-52
2023/01/02 03:52:51;;;;;;;1.70;1.20;;;;;17.20;100033.00;;;;2069562;28;20639;-52
2023/01/02 03:53:51;;;;;;;1.73;1.37;;;;;17.30;100023.00;;;;2056608;28;20726;-52
2023/01/02 03:54:53;;;;;;;1.50;1.13;;;;;17.30;100015.00;;;;2054553;28;20637;-52
2023/01/02 03:55:56;;;;;;;1.50;1.13;;;;;17.20;100021.00;;;;2046814;28;20508;-52
2023/01/02 03:57:03;;;;;;;1.40;1.00;;;;;17.20;100028.00;;;;2062394;28;20209;-52
2023/01/02 03:58:09;;;;;;;1.65;1.20;;;;;17.30;100025.00;;;;2062686;28;20223;-52
2023/01/02 03:59:33;;;;;;;1.95;1.10;;;;;17.20;100014.00;;;;2062555;28;20212;-52
2023/01/02 04:00:40;;;;;;;1.48;1.10;;;;;17.20;100017.00;;;;2062025;28;20220;-52
2023/01/02 04:01:50;;;;;;;2.10;1.50;;;;;17.20;100021.00;;;;2062135;28;20258;-52
2023/01/02 04:03:03;;;;;;;1.90;1.30;;;;;17.20;100016.00;;;;2061787;28;20211;-52
2023/01/02 04:04:25;;;;;;;2.20;1.60;;;;;17.30;100019.00;;;;2060684;28;20239;-52
2023/01/02 04:05:34;;;;;;;1.52;0.95;;;;;17.30;100017.00;;;;2070364;28;20433;-53
2023/01/02 04:06:36;;;;;;;1.83;1.42;;;;;17.30;100023.00;;;;2063179;28;20983;-52
2023/01/02 04:07:54;;;;;;;1.42;1.17;;;;;17.20;100028.00;;;;2053953;28;20247;-51
2023/01/02 04:08:59;;;;;;;1.70;1.08;;;;;17.30;100017.00;;;;2053121;28;20212;-52
2023/01/02 04:09:59;;;;;;;1.83;1.10;;;;;17.30;100028.00;;;;2046206;28;20229;-52
2023/01/02 04:10:59;;;;;;;2.23;1.17;;;;;17.30;100035.00;;;;2054009;28;20267;-52
2023/01/02 04:12:08;;;;;;;1.40;1.20;;;;;17.30;100029.00;;;;2045609;28;20414;-52
2023/01/02 04:13:14;;;;;;;2.30;1.20;;;;;17.30;100025.00;;;;2060721;28;20634;-52
2023/01/02 04:14:19;;;;;;;1.45;1.00;;;;;17.20;100024.00;;;;2061602;28;20254;-56
2023/01/02 04:15:21;;;;;;;2.08;1.38;;;;;17.20;100037.00;;;;2062677;28;20728;-52
2023/01/02 04:16:23;;;;;;;2.90;1.73;;;;;17.20;100026.00;;;;2061628;28;20229;-52
2023/01/02 04:17:24;;;;;;;1.77;1.25;;;;;17.20;100021.00;;;;2062215;28;20212;-53
2023/01/02 04:18:26;;;;;;;2.30;1.30;;;;;17.20;100015.00;;;;2061167;28;20209;-53
2023/01/02 04:19:35;;;;;;;1.30;1.17;;;;;17.20;100012.00;;;;2061736;28;20217;-52
2023/01/02 04:20:39;;;;;;;1.50;1.08;;;;;17.20;100026.00;;;;2054878;28;20220;-52
2023/01/02 04:21:39;;;;;;;2.35;1.30;;;;;17.20;100016.00;;;;2054352;28;20251;-52
2023/01/02 04:22:53;;;;;;;2.00;1.00;;;;;17.20;100016.00;;;;2054157;28;20229;-52
2023/01/02 04:23:57;;;;;;;2.47;1.27;;;;;17.20;100021.00;;;;2066786;28;20658;-53
2023/01/02 04:25:12;;;;;;;1.95;1.38;;;;;17.30;100018.00;;;;2070534;28;20734;-52
2023/01/02 04:26:19;;;;;;;2.70;0.90;;;;;17.20;100020.00;;;;2070564;28;20234;-52
2023/01/02 04:27:42;;;;;;;2.58;1.50;;;;;17.20;100030.00;;;;2067809;28;20298;-52
2023/01/02 04:28:43;;;;;;;2.15;1.10;;;;;17.20;100024.00;;;;2062336;28;20215;-52
2023/01/02 04:29:43;;;;;;;2.47;1.30;;;;;17.20;100025.00;;;;2054388;28;20684;-52
2023/01/02 04:30:46;;;;;;;2.47;1.50;;;;;17.20;100022.00;;;;2062360;28;20220;-52
2023/01/02 04:31:50;;;;;;;2.42;1.52;;;;;17.30;100022.00;;;;2069298;28;20216;-56
2023/01/02 04:32:50;;;;;;;2.00;1.40;;;;;17.20;100024.00;;;;2062705;28;20207;-52
2023/01/02 04:33:52;;;;;;;1.90;1.63;;;;;17.20;100015.00;;;;2062208;28;20210;-53
2023/01/02 04:34:53;;;;;;;1.73;1.40;;;;;17.20;100022.00;;;;2062483;28;20579;-52
2023/01/02 04:35:53;;;;;;;1.20;0.80;;;;;17.20;100024.00;;;;2062250;28;20205;-52
2023/01/02 04:36:54;;;;;;;1.93;1.20;;;;;17.20;100023.00;;;;2070282;28;20445;-53
2023/01/02 04:37:54;;;;;;;2.37;1.20;;;;;17.30;100022.00;;;;2071288;28;20241;-52
2023/01/02 04:38:54;;;;;;;1.30;1.03;;;;;17.20;100024.00;;;;2070885;28;20309;-52
2023/01/02 04:39:55;;;;;;;1.80;1.10;;;;;17.20;100025.00;;;;2070849;28;20668;-52
2023/01/02 04:40:56;;;;;;;1.50;0.90;;;;;17.20;100023.00;;;;2061077;28;20688;-52
2023/01/02 04:41:56;;;;;;;1.37;0.90;;;;;17.20;100028.00;;;;2053602;28;20475;-52
2023/01/02 04:42:56;;;;;;;1.60;1.30;;;;;17.20;100028.00;;;;2062047;28;20246;-52
2023/01/02 04:43:57;;;;;;;2.00;1.50;;;;;17.30;100026.00;;;;2062815;28;20255;-53
2023/01/02 04:44:57;;;;;;;2.23;1.10;;;;;17.20;100029.00;;;;2062754;28;20219;-53
2023/01/02 04:45:57;;;;;;;1.90;1.20;;;;;17.30;100020.00;;;;2062833;28;20810;-52
2023/01/02 04:46:58;;;;;;;1.70;1.30;;;;;17.30;100028.00;;;;2062933;28;21060;-52
2023/01/02 04:47:58;;;;;;;1.50;1.30;;;;;17.20;100021.00;;;;2062805;28;20222;-52
2023/01/02 04:48:58;;;;;;;1.30;1.20;;;;;17.30;100028.00;;;;2062919;28;20212;-53
2023/01/02 04:49:59;;;;;;;2.10;1.37;;;;;17.20;100028.00;;;;2062751;28;20216;-51
2023/01/02 04:50:59;;;;;;;1.33;1.20;;;;;17.20;100030.00;;;;2062774;28;20764;-53
2023/01/02 04:51:59;;;;;;;1.67;1.40;;;;;17.20;100022.00;;;;2062591;28;20797;-52
2023/01/02 04:53:00;;;;;;;1.63;1.53;;;;;17.20;100021.00;;;;2062702;28;20576;-53
2023/01/02 04:54:00;;;;;;;1.90;1.20;;;;;17.20;100026.00;;;;2063839;28;20840;-52
2023/01/02 04:55:00;;;;;;;1.63;1.10;;;;;17.30;100026.00;;;;2064286;28;20571;-52
2023/01/02 04:56:01;;;;;;;1.67;1.30;;;;;17.30;100039.00;;;;2062558;28;20212;-52
2023/01/02 04:57:01;;;;;;;2.00;1.10;;;;;17.30;100024.00;;;;2062811;28;20216;-52
2023/01/02 04:58:01;;;;;;;1.43;1.10;;;;;17.20;100034.00;;;;2062841;28;20238;-52
2023/01/02 04:59:02;;;;;;;1.50;1.23;;;;;17.30;100030.00;;;;2063002;28;20224;-52
2023/01/02 05:00:04;;;;;;;2.07;1.20;;;;;17.20;100025.00;;;;2068760;28;20440;-52
2023/01/02 05:01:11;;;;;;;3.97;1.20;;;;;17.20;100036.00;;;;2070935;28;20290;-52
2023/01/02 05:02:11;;;;;;;1.30;1.20;;;;;17.30;100032.00;;;;2070418;28;20365;-52
2023/01/02 05:03:12;;;;;;;2.10;1.20;;;;;17.30;100030.00;;;;2070854;28;20219;-52
2023/01/02 05:04:12;;;;;;;1.33;1.17;;;;;17.30;100028.00;;;;2070819;28;20297;-52
2023/01/02 05:05:12;;;;;;;2.00;1.20;;;;;17.30;100035.00;;;;2070632;28;20214;-52
2023/01/02 05:06:13;;;;;;;1.40;1.10;;;;;17.20;100032.00;;;;2070083;28;20215;-52
2023/01/02 05:07:13;;;;;;;1.70;1.40;;;;;17.30;100033.00;;;;2070491;28;20246;-52
2023/01/02 05:08:13;;;;;;;2.60;1.30;;;;;17.20;100031.00;;;;2067517;28;20343;-52
2023/01/02 05:09:14;;;;;;;1.63;1.30;;;;;17.30;100032.00;;;;2062050;28;20243;-52
2023/01/02 05:10:15;;;;;;;1.92;1.50;;;;;17.30;100033.00;;;;2062243;28;20215;-52
2023/01/02 05:11:17;;;;;;;1.70;1.20;;;;;17.20;100043.00;;;;2062331;28;20218;-52
2023/01/02 05:12:17;;;;;;;1.30;1.02;;;;;17.20;100043.00;;;;2062116;28;20224;-52
2023/01/02 05:13:18;;;;;;;2.87;1.37;;;;;17.20;100042.00;;;;2060904;28;20732;-52
2023/01/02 05:14:18;;;;;;;1.57;1.43;;;;;17.20;100033.00;;;;2062320;28;20361;-52
2023/01/02 05:15:18;;;;;;;1.30;1.00;;;;;17.20;100036.00;;;;2062500;28;20230;-52
2023/01/02 05:16:18;;;;;;;2.03;1.50;;;;;17.20;100045.00;;;;2062448;28;20310;-52
2023/01/02 05:17:19;;;;;;;1.60;1.20;;;;;17.20;100047.00;;;;2062517;28;20215;-52
2023/01/02 05:18:19;;;;;;;1.10;1.00;;;;;17.20;100053.00;;;;2062578;28;20227;-52